sensor_id;sensor_type;location;lat;lon;timestamp;pressure;altitude;pressure_sealevel;temperature;humidity
77079;BME280;66004;55.096;38.760;2023-09-19T00:01:06;100694.66;;;11.46;71.91
77079;BME280;66004;55.096;38.760;2023-09-19T00:03:37;100697.13;;;11.48;71.64
77079;BME280;66004;55.096;38.760;2023-09-19T00:06:03;100693.81;;;11.46;71.76
77079;BME280;66004;55.096;38.760;2023-09-19T00:08:30;100697.13;;;11.48;71.47
77079;BME280;66004;55.096;38.760;2023-09-19T00:10:56;100683.19;;;11.43;71.83
77079;BME280;66004;55.096;38.760;2023-09-19T00:13:28;100683.03;;;11.39;71.67
77079;BME280;66004;55.096;38.760;2023-09-19T00:15:53;100683.72;;;11.36;71.63
77079;BME280;66004;55.096;38.760;2023-09-19T00:18:21;100661.31;;;11.22;71.78
77079;BME280;66004;55.096;38.760;2023-09-19T00:20:47;100673.94;;;11.25;71.94
77079;BME280;66004;55.096;38.760;2023-09-19T00:23:13;100684.38;;;11.33;71.59
77079;BME280;66004;55.096;38.760;2023-09-19T00:25:39;100685.88;;;11.30;71.80
77079;BME280;66004;55.096;38.760;2023-09-19T00:28:06;100692.97;;;11.28;71.70
77079;BME280;66004;55.096;38.760;2023-09-19T00:30:33;100694.47;;;11.25;71.69
77079;BME280;66004;55.096;38.760;2023-09-19T00:32:59;100698.41;;;11.24;71.54
77079;BME280;66004;55.096;38.760;2023-09-19T00:35:25;100688.13;;;11.11;72.19
77079;BME280;66004;55.096;38.760;2023-09-19T00:37:53;100676.69;;;11.07;72.28
77079;BME280;66004;55.096;38.760;2023-09-19T00:40:19;100681.84;;;11.14;72.34
77079;BME280;66004;55.096;38.760;2023-09-19T00:42:47;100684.16;;;11.12;72.26
77079;BME280;66004;55.096;38.760;2023-09-19T00:45:14;100673.19;;;11.02;71.79
77079;BME280;66004;55.096;38.760;2023-09-19T00:47:50;100678.53;;;11.12;72.11
77079;BME280;66004;55.096;38.760;2023-09-19T00:50:21;100676.88;;;11.11;72.02
77079;BME280;66004;55.096;38.760;2023-09-19T00:52:48;100680.03;;;11.09;71.92
77079;BME280;66004;55.096;38.760;2023-09-19T00:55:16;100686.50;;;11.10;71.35
77079;BME280;66004;55.096;38.760;2023-09-19T00:57:42;100674.38;;;11.01;71.32
77079;BME280;66004;55.096;38.760;2023-09-19T01:00:10;100685.50;;;11.06;71.23
77079;BME280;66004;55.096;38.760;2023-09-19T01:02:41;100694.44;;;11.08;71.30
77079;BME280;66004;55.096;38.760;2023-09-19T01:05:08;100688.81;;;11.08;71.23
77079;BME280;66004;55.096;38.760;2023-09-19T01:07:34;100687.81;;;11.04;71.62
77079;BME280;66004;55.096;38.760;2023-09-19T01:10:02;100689.63;;;11.08;71.78
77079;BME280;66004;55.096;38.760;2023-09-19T01:12:35;100699.75;;;11.09;71.72
77079;BME280;66004;55.096;38.760;2023-09-19T01:20:57;100685.81;;;11.13;71.48
77079;BME280;66004;55.096;38.760;2023-09-19T01:32:19;100678.00;;;11.01;71.55
77079;BME280;66004;55.096;38.760;2023-09-19T01:34:52;100696.06;;;11.09;71.87
77079;BME280;66004;55.096;38.760;2023-09-19T01:37:21;100683.00;;;11.04;71.70
77079;BME280;66004;55.096;38.760;2023-09-19T01:39:56;100687.47;;;11.14;72.23
77079;BME280;66004;55.096;38.760;2023-09-19T01:42:49;100685.50;;;11.23;71.97
77079;BME280;66004;55.096;38.760;2023-09-19T01:45:36;100686.50;;;11.27;71.74
77079;BME280;66004;55.096;38.760;2023-09-19T01:51:07;100688.19;;;11.28;72.25
77079;BME280;66004;55.096;38.760;2023-09-19T01:53:55;100687.34;;;11.37;72.23
77079;BME280;66004;55.096;38.760;2023-09-19T01:56:30;100676.75;;;11.42;72.72
77079;BME280;66004;55.096;38.760;2023-09-19T01:59:04;100680.72;;;11.50;72.38
77079;BME280;66004;55.096;38.760;2023-09-19T02:01:31;100686.22;;;11.55;72.40
77079;BME280;66004;55.096;38.760;2023-09-19T02:03:58;100688.88;;;11.60;72.72
77079;BME280;66004;55.096;38.760;2023-09-19T02:06:24;100690.69;;;11.65;72.81
77079;BME280;66004;55.096;38.760;2023-09-19T02:08:50;100690.03;;;11.68;72.35
77079;BME280;66004;55.096;38.760;2023-09-19T02:11:16;100696.31;;;11.74;72.96
77079;BME280;66004;55.096;38.760;2023-09-19T02:13:42;100682.22;;;11.74;72.54
77079;BME280;66004;55.096;38.760;2023-09-19T02:16:09;100688.84;;;11.78;72.70
77079;BME280;66004;55.096;38.760;2023-09-19T02:18:36;100684.84;;;11.79;72.86
77079;BME280;66004;55.096;38.760;2023-09-19T02:21:02;100685.53;;;11.76;72.30
77079;BME280;66004;55.096;38.760;2023-09-19T02:23:29;100663.66;;;11.73;72.69
77079;BME280;66004;55.096;38.760;2023-09-19T02:25:56;100676.91;;;11.81;72.85
77079;BME280;66004;55.096;38.760;2023-09-19T02:28:29;100678.41;;;11.87;72.79
77079;BME280;66004;55.096;38.760;2023-09-19T02:30:58;100664.97;;;11.84;72.55
77079;BME280;66004;55.096;38.760;2023-09-19T02:33:24;100684.91;;;11.96;72.50
77079;BME280;66004;55.096;38.760;2023-09-19T02:35:49;100687.72;;;11.96;72.61
77079;BME280;66004;55.096;38.760;2023-09-19T02:38:15;100682.56;;;11.98;72.81
77079;BME280;66004;55.096;38.760;2023-09-19T02:40:46;100685.38;;;11.98;72.75
77079;BME280;66004;55.096;38.760;2023-09-19T02:43:11;100676.06;;;11.98;72.74
77079;BME280;66004;55.096;38.760;2023-09-19T02:45:37;100676.25;;;12.01;72.44
77079;BME280;66004;55.096;38.760;2023-09-19T02:48:03;100683.53;;;12.02;72.89
77079;BME280;66004;55.096;38.760;2023-09-19T02:50:29;100681.88;;;12.01;72.69
77079;BME280;66004;55.096;38.760;2023-09-19T02:52:55;100663.00;;;11.93;72.44
77079;BME280;66004;55.096;38.760;2023-09-19T02:55:21;100666.97;;;11.92;72.69
77079;BME280;66004;55.096;38.760;2023-09-19T02:57:53;100681.22;;;12.04;72.63
77079;BME280;66004;55.096;38.760;2023-09-19T03:00:20;100683.38;;;12.07;73.02
77079;BME280;66004;55.096;38.760;2023-09-19T03:02:51;100681.53;;;12.12;72.57
77079;BME280;66004;55.096;38.760;2023-09-19T03:05:18;100676.88;;;12.16;72.68
77079;BME280;66004;55.096;38.760;2023-09-19T03:07:44;100684.84;;;12.14;72.28
77079;BME280;66004;55.096;38.760;2023-09-19T03:10:12;100684.84;;;12.14;72.32
77079;BME280;66004;55.096;38.760;2023-09-19T03:12:40;100681.22;;;12.13;72.35
77079;BME280;66004;55.096;38.760;2023-09-19T03:15:06;100683.66;;;12.15;72.28
77079;BME280;66004;55.096;38.760;2023-09-19T03:17:34;100688.00;;;12.12;72.08
77079;BME280;66004;55.096;38.760;2023-09-19T03:19:59;100698.09;;;12.22;72.50
77079;BME280;66004;55.096;38.760;2023-09-19T03:22:27;100679.69;;;12.16;72.01
77079;BME280;66004;55.096;38.760;2023-09-19T03:24:52;100688.00;;;12.21;72.04
77079;BME280;66004;55.096;38.760;2023-09-19T03:27:19;100684.47;;;12.24;72.07
77079;BME280;66004;55.096;38.760;2023-09-19T03:29:46;100687.78;;;12.26;71.96
77079;BME280;66004;55.096;38.760;2023-09-19T03:32:11;100687.78;;;12.26;71.66
77079;BME280;66004;55.096;38.760;2023-09-19T03:34:38;100686.81;;;12.22;71.50
77079;BME280;66004;55.096;38.760;2023-09-19T03:37:07;100683.50;;;12.20;71.94
77079;BME280;66004;55.096;38.760;2023-09-19T03:39:32;100684.31;;;12.20;72.11
77079;BME280;66004;55.096;38.760;2023-09-19T03:41:58;100672.06;;;12.16;72.11
77079;BME280;66004;55.096;38.760;2023-09-19T03:44:23;100667.28;;;12.17;72.13
77079;BME280;66004;55.096;38.760;2023-09-19T03:46:49;100668.91;;;12.18;71.47
77079;BME280;66004;55.096;38.760;2023-09-19T03:49:14;100668.91;;;12.18;71.91
77079;BME280;66004;55.096;38.760;2023-09-19T03:51:40;100670.59;;;12.19;71.41
77079;BME280;66004;55.096;38.760;2023-09-19T03:54:07;100669.41;;;12.20;72.01
77079;BME280;66004;55.096;38.760;2023-09-19T03:56:33;100661.63;;;12.17;71.33
77079;BME280;66004;55.096;38.760;2023-09-19T03:58:59;100663.94;;;12.15;71.29
77079;BME280;66004;55.096;38.760;2023-09-19T04:01:24;100668.41;;;12.16;71.25
77079;BME280;66004;55.096;38.760;2023-09-19T04:03:50;100666.25;;;12.13;71.37
77079;BME280;66004;55.096;38.760;2023-09-19T04:06:17;100662.94;;;12.11;71.15
77079;BME280;66004;55.096;38.760;2023-09-19T04:08:43;100664.28;;;12.04;71.45
77079;BME280;66004;55.096;38.760;2023-09-19T04:11:10;100661.97;;;12.06;71.54
77079;BME280;66004;55.096;38.760;2023-09-19T04:13:36;100668.28;;;12.03;71.78
77079;BME280;66004;55.096;38.760;2023-09-19T04:16:02;100672.09;;;12.07;71.80
77079;BME280;66004;55.096;38.760;2023-09-19T04:18:29;100653.00;;;12.04;71.62
77079;BME280;66004;55.096;38.760;2023-09-19T04:20:58;100665.91;;;12.23;71.07
77079;BME280;66004;55.096;38.760;2023-09-19T04:23:23;100675.19;;;12.32;70.73
77079;BME280;66004;55.096;38.760;2023-09-19T04:25:49;100667.69;;;12.36;70.86
77079;BME280;66004;55.096;38.760;2023-09-19T04:28:15;100669.16;;;12.42;70.84
77079;BME280;66004;55.096;38.760;2023-09-19T04:30:41;100681.44;;;12.46;70.81
77079;BME280;66004;55.096;38.760;2023-09-19T04:33:07;100684.06;;;12.52;70.16
77079;BME280;66004;55.096;38.760;2023-09-19T04:35:33;100668.81;;;12.53;70.32
77079;BME280;66004;55.096;38.760;2023-09-19T04:37:59;100671.25;;;12.54;69.80
77079;BME280;66004;55.096;38.760;2023-09-19T04:40:24;100670.44;;;12.54;70.21
77079;BME280;66004;55.096;38.760;2023-09-19T04:42:55;100676.59;;;12.56;70.13
77079;BME280;66004;55.096;38.760;2023-09-19T04:45:23;100674.72;;;12.60;69.73
77079;BME280;66004;55.096;38.760;2023-09-19T04:47:49;100681.38;;;12.64;70.16
77079;BME280;66004;55.096;38.760;2023-09-19T04:50:14;100663.94;;;12.62;69.72
77079;BME280;66004;55.096;38.760;2023-09-19T04:52:41;100669.69;;;12.74;69.35
77079;BME280;66004;55.096;38.760;2023-09-19T04:55:19;100670.38;;;12.71;69.39
77079;BME280;66004;55.096;38.760;2023-09-19T04:57:51;100668.03;;;12.73;69.91
77079;BME280;66004;55.096;38.760;2023-09-19T05:00:20;100662.53;;;12.77;69.32
77079;BME280;66004;55.096;38.760;2023-09-19T05:02:54;100660.56;;;12.77;69.61
77079;BME280;66004;55.096;38.760;2023-09-19T05:05:21;100669.28;;;12.84;69.16
77079;BME280;66004;55.096;38.760;2023-09-19T05:07:49;100667.19;;;12.81;69.52
77079;BME280;66004;55.096;38.760;2023-09-19T05:10:15;100675.66;;;12.81;69.72
77079;BME280;66004;55.096;38.760;2023-09-19T05:12:44;100678.28;;;12.87;69.12
77079;BME280;66004;55.096;38.760;2023-09-19T05:15:12;100673.59;;;12.91;69.12
77079;BME280;66004;55.096;38.760;2023-09-19T05:17:37;100667.63;;;12.92;69.11
77079;BME280;66004;55.096;38.760;2023-09-19T05:20:05;100651.84;;;12.91;69.03
77079;BME280;66004;55.096;38.760;2023-09-19T05:22:57;100672.53;;;13.04;68.78
77079;BME280;66004;55.096;38.760;2023-09-19T05:25:22;100662.78;;;13.22;68.71
77079;BME280;66004;55.096;38.760;2023-09-19T05:27:48;100664.88;;;13.34;68.81
77079;BME280;66004;55.096;38.760;2023-09-19T05:30:15;100658.66;;;13.41;68.34
77079;BME280;66004;55.096;38.760;2023-09-19T05:32:41;100666.53;;;13.56;68.03
77079;BME280;66004;55.096;38.760;2023-09-19T05:35:06;100670.22;;;13.69;68.03
77079;BME280;66004;55.096;38.760;2023-09-19T05:37:35;100658.66;;;13.83;67.67
77079;BME280;66004;55.096;38.760;2023-09-19T05:40:02;100666.94;;;13.88;66.95
77079;BME280;66004;55.096;38.760;2023-09-19T05:42:32;100652.28;;;13.86;66.99
77079;BME280;66004;55.096;38.760;2023-09-19T05:44:58;100651.84;;;13.96;66.71
77079;BME280;66004;55.096;38.760;2023-09-19T05:47:23;100652.69;;;13.97;67.03
77079;BME280;66004;55.096;38.760;2023-09-19T05:49:50;100655.63;;;14.00;66.59
77079;BME280;66004;55.096;38.760;2023-09-19T05:52:16;100650.44;;;14.02;67.13
77079;BME280;66004;55.096;38.760;2023-09-19T05:54:43;100653.88;;;14.08;66.76
77079;BME280;66004;55.096;38.760;2023-09-19T05:57:08;100655.19;;;14.11;66.61
77079;BME280;66004;55.096;38.760;2023-09-19T05:59:37;100659.00;;;14.15;66.54
77079;BME280;66004;55.096;38.760;2023-09-19T06:02:04;100649.31;;;14.16;66.72
77079;BME280;66004;55.096;38.760;2023-09-19T06:04:31;100635.03;;;14.12;66.54
77079;BME280;66004;55.096;38.760;2023-09-19T06:06:56;100651.25;;;14.24;66.27
77079;BME280;66004;55.096;38.760;2023-09-19T06:09:22;100670.09;;;14.32;66.53
77079;BME280;66004;55.096;38.760;2023-09-19T06:11:48;100652.19;;;14.40;66.55
77079;BME280;66004;55.096;38.760;2023-09-19T06:14:13;100646.31;;;14.46;66.32
77079;BME280;66004;55.096;38.760;2023-09-19T06:16:39;100644.19;;;14.55;66.15
77079;BME280;66004;55.096;38.760;2023-09-19T06:19:06;100634.50;;;14.56;65.97
77079;BME280;66004;55.096;38.760;2023-09-19T06:21:34;100627.22;;;14.55;66.26
77079;BME280;66004;55.096;38.760;2023-09-19T06:23:59;100627.34;;;14.58;65.95
77079;BME280;66004;55.096;38.760;2023-09-19T06:26:25;100634.31;;;14.61;66.35
77079;BME280;66004;55.096;38.760;2023-09-19T06:28:52;100646.09;;;14.63;66.66
77079;BME280;66004;55.096;38.760;2023-09-19T06:31:18;100651.78;;;14.88;66.07
77079;BME280;66004;55.096;38.760;2023-09-19T06:33:43;100646.00;;;15.09;65.67
77079;BME280;66004;55.096;38.760;2023-09-19T06:36:09;100626.00;;;15.17;65.58
77079;BME280;66004;55.096;38.760;2023-09-19T06:38:35;100638.72;;;15.36;65.16
77079;BME280;66004;55.096;38.760;2023-09-19T06:41:02;100639.16;;;15.50;64.94
77079;BME280;66004;55.096;38.760;2023-09-19T06:43:32;100646.09;;;15.65;64.71
77079;BME280;66004;55.096;38.760;2023-09-19T06:45:59;100646.06;;;15.77;64.48
77079;BME280;66004;55.096;38.760;2023-09-19T06:48:25;100645.53;;;15.60;64.83
77079;BME280;66004;55.096;38.760;2023-09-19T06:50:53;100632.25;;;15.35;65.62
77079;BME280;66004;55.096;38.760;2023-09-19T06:53:20;100638.94;;;15.43;65.43
77079;BME280;66004;55.096;38.760;2023-09-19T06:55:46;100642.47;;;15.52;65.76
77079;BME280;66004;55.096;38.760;2023-09-19T06:58:13;100639.47;;;15.61;65.80
77079;BME280;66004;55.096;38.760;2023-09-19T07:00:38;100631.91;;;15.65;65.41
77079;BME280;66004;55.096;38.760;2023-09-19T07:03:07;100646.06;;;15.77;65.26
77079;BME280;66004;55.096;38.760;2023-09-19T07:05:37;100651.97;;;16.01;65.12
77079;BME280;66004;55.096;38.760;2023-09-19T07:08:05;100638.66;;;16.17;64.62
77079;BME280;66004;55.096;38.760;2023-09-19T07:10:32;100633.16;;;16.24;64.21
77079;BME280;66004;55.096;38.760;2023-09-19T07:13:04;100632.63;;;16.34;64.24
77079;BME280;66004;55.096;38.760;2023-09-19T07:15:35;100634.47;;;16.43;63.70
77079;BME280;66004;55.096;38.760;2023-09-19T07:18:14;100625.56;;;16.44;63.68
77079;BME280;66004;55.096;38.760;2023-09-19T07:20:42;100627.84;;;16.39;63.74
77079;BME280;66004;55.096;38.760;2023-09-19T07:23:15;100627.50;;;16.40;63.83
77079;BME280;66004;55.096;38.760;2023-09-19T07:25:43;100629.50;;;16.40;63.90
77079;BME280;66004;55.096;38.760;2023-09-19T07:28:09;100627.59;;;16.44;64.10
77079;BME280;66004;55.096;38.760;2023-09-19T07:30:38;100615.97;;;16.49;64.09
77079;BME280;66004;55.096;38.760;2023-09-19T07:33:05;100624.03;;;16.47;64.10
77079;BME280;66004;55.096;38.760;2023-09-19T07:35:31;100608.63;;;16.48;64.00
77079;BME280;66004;55.096;38.760;2023-09-19T07:37:57;100610.75;;;16.51;64.11
77079;BME280;66004;55.096;38.760;2023-09-19T07:40:24;100601.94;;;16.56;63.75
77079;BME280;66004;55.096;38.760;2023-09-19T07:42:52;100614.84;;;16.69;63.74
77079;BME280;66004;55.096;38.760;2023-09-19T07:45:17;100623.84;;;16.71;63.87
77079;BME280;66004;55.096;38.760;2023-09-19T07:47:50;100618.53;;;16.86;63.63
77079;BME280;66004;55.096;38.760;2023-09-19T07:50:17;100606.75;;;17.03;63.04
77079;BME280;66004;55.096;38.760;2023-09-19T07:52:47;100601.09;;;17.23;62.96
77079;BME280;66004;55.096;38.760;2023-09-19T07:55:13;100599.47;;;17.41;62.45
77079;BME280;66004;55.096;38.760;2023-09-19T07:57:42;100614.16;;;17.43;62.35
77079;BME280;66004;55.096;38.760;2023-09-19T08:00:08;100617.00;;;17.43;62.46
77079;BME280;66004;55.096;38.760;2023-09-19T08:02:39;100620.44;;;17.33;62.48
77079;BME280;66004;55.096;38.760;2023-09-19T08:05:07;100611.47;;;17.31;62.87
77079;BME280;66004;55.096;38.760;2023-09-19T08:07:40;100608.75;;;17.38;62.84
77079;BME280;66004;55.096;38.760;2023-09-19T08:10:07;100599.31;;;17.34;62.80
77079;BME280;66004;55.096;38.760;2023-09-19T08:12:34;100598.94;;;17.36;63.05
77079;BME280;66004;55.096;38.760;2023-09-19T08:15:02;100608.47;;;17.43;62.90
77079;BME280;66004;55.096;38.760;2023-09-19T08:17:28;100606.22;;;17.52;62.84
77079;BME280;66004;55.096;38.760;2023-09-19T08:19:54;100606.56;;;17.70;62.49
77079;BME280;66004;55.096;38.760;2023-09-19T08:22:20;100599.63;;;17.87;61.95
77079;BME280;66004;55.096;38.760;2023-09-19T08:24:47;100603.47;;;18.18;61.63
77079;BME280;66004;55.096;38.760;2023-09-19T08:27:13;100602.97;;;18.36;61.23
77079;BME280;66004;55.096;38.760;2023-09-19T08:29:39;100610.34;;;18.37;60.82
77079;BME280;66004;55.096;38.760;2023-09-19T08:32:05;100610.78;;;18.39;60.83
77079;BME280;66004;55.096;38.760;2023-09-19T08:34:31;100607.91;;;18.39;61.11
77079;BME280;66004;55.096;38.760;2023-09-19T08:37:00;100600.00;;;18.28;60.51
77079;BME280;66004;55.096;38.760;2023-09-19T08:39:26;100614.22;;;18.28;60.95
77079;BME280;66004;55.096;38.760;2023-09-19T08:41:58;100617.22;;;18.13;60.99
77079;BME280;66004;55.096;38.760;2023-09-19T08:44:27;100614.44;;;17.97;61.21
77079;BME280;66004;55.096;38.760;2023-09-19T08:47:11;100596.03;;;17.71;61.78
77079;BME280;66004;55.096;38.760;2023-09-19T08:52:22;100605.91;;;17.77;62.21
77079;BME280;66004;55.096;38.760;2023-09-19T08:54:51;100600.66;;;17.79;62.15
77079;BME280;66004;55.096;38.760;2023-09-19T08:57:19;100605.91;;;17.77;62.30
77079;BME280;66004;55.096;38.760;2023-09-19T08:59:48;100594.44;;;17.74;62.22
77079;BME280;66004;55.096;38.760;2023-09-19T09:02:15;100583.44;;;17.72;62.42
77079;BME280;66004;55.096;38.760;2023-09-19T09:04:43;100586.28;;;17.72;62.48
77079;BME280;66004;55.096;38.760;2023-09-19T09:07:12;100574.91;;;17.72;62.65
77079;BME280;66004;55.096;38.760;2023-09-19T09:09:39;100585.53;;;17.75;62.61
77079;BME280;66004;55.096;38.760;2023-09-19T09:12:14;100588.25;;;17.87;62.69
77079;BME280;66004;55.096;38.760;2023-09-19T09:14:44;100581.19;;;18.01;62.43
77079;BME280;66004;55.096;38.760;2023-09-19T09:17:11;100581.75;;;18.10;61.87
77079;BME280;66004;55.096;38.760;2023-09-19T09:19:37;100579.25;;;18.28;61.87
77079;BME280;66004;55.096;38.760;2023-09-19T09:22:07;100576.50;;;18.58;61.55
77079;BME280;66004;55.096;38.760;2023-09-19T09:24:33;100570.44;;;18.86;60.83
77079;BME280;66004;55.096;38.760;2023-09-19T09:26:59;100555.13;;;18.98;60.34
77079;BME280;66004;55.096;38.760;2023-09-19T09:29:42;100556.84;;;19.03;59.86
77079;BME280;66004;55.096;38.760;2023-09-19T09:34:58;100566.06;;;19.23;59.77
77079;BME280;66004;55.096;38.760;2023-09-19T09:37:24;100561.63;;;19.56;58.79
77079;BME280;66004;55.096;38.760;2023-09-19T09:40:02;100560.25;;;19.76;58.72
77079;BME280;66004;55.096;38.760;2023-09-19T09:42:39;100556.78;;;19.94;58.05
77079;BME280;66004;55.096;38.760;2023-09-19T09:45:19;100554.06;;;20.08;58.23
77079;BME280;66004;55.096;38.760;2023-09-19T09:48:04;100543.59;;;20.23;57.57
77079;BME280;66004;55.096;38.760;2023-09-19T09:50:46;100550.56;;;20.26;57.23
77079;BME280;66004;55.096;38.760;2023-09-19T09:53:30;100562.34;;;20.20;57.88
77079;BME280;66004;55.096;38.760;2023-09-19T09:56:08;100549.31;;;20.27;57.33
77079;BME280;66004;55.096;38.760;2023-09-19T09:58:49;100552.63;;;20.29;57.46
77079;BME280;66004;55.096;38.760;2023-09-19T10:01:15;100557.19;;;20.37;57.18
77079;BME280;66004;55.096;38.760;2023-09-19T10:03:42;100553.59;;;20.47;57.01
77079;BME280;66004;55.096;38.760;2023-09-19T10:06:14;100552.47;;;20.59;56.63
77079;BME280;66004;55.096;38.760;2023-09-19T10:09:06;100542.31;;;20.61;56.45
77079;BME280;66004;55.096;38.760;2023-09-19T10:11:46;100538.25;;;20.63;56.95
77079;BME280;66004;55.096;38.760;2023-09-19T10:14:16;100529.34;;;20.78;56.31
77079;BME280;66004;55.096;38.760;2023-09-19T10:16:47;100520.44;;;20.94;56.18
77079;BME280;66004;55.096;38.760;2023-09-19T10:21:59;100521.47;;;21.34;55.89
77079;BME280;66004;55.096;38.760;2023-09-19T10:24:28;100532.19;;;21.52;55.74
77079;BME280;66004;55.096;38.760;2023-09-19T10:26:55;100518.34;;;21.61;55.00
77079;BME280;66004;55.096;38.760;2023-09-19T10:29:21;100513.44;;;21.72;55.23
77079;BME280;66004;55.096;38.760;2023-09-19T10:31:52;100508.13;;;21.71;54.69
77079;BME280;66004;55.096;38.760;2023-09-19T10:34:20;100506.06;;;21.71;54.58
77079;BME280;66004;55.096;38.760;2023-09-19T10:36:48;100497.91;;;21.81;54.59
77079;BME280;66004;55.096;38.760;2023-09-19T10:39:16;100502.00;;;21.87;54.28
77079;BME280;66004;55.096;38.760;2023-09-19T10:41:51;100501.22;;;21.97;53.95
77079;BME280;66004;55.096;38.760;2023-09-19T10:44:25;100500.41;;;22.07;53.64
77079;BME280;66004;55.096;38.760;2023-09-19T10:46:52;100504.50;;;22.21;53.41
77079;BME280;66004;55.096;38.760;2023-09-19T10:49:35;100506.19;;;22.36;53.46
77079;BME280;66004;55.096;38.760;2023-09-19T10:52:01;100495.53;;;22.44;53.17
77079;BME280;66004;55.096;38.760;2023-09-19T10:54:33;100500.41;;;22.58;52.94
77079;BME280;66004;55.096;38.760;2023-09-19T10:57:02;100499.59;;;22.68;53.16
77079;BME280;66004;55.096;38.760;2023-09-19T10:59:30;100494.69;;;22.65;52.72
77079;BME280;66004;55.096;38.760;2023-09-19T11:02:16;100484.88;;;22.55;52.88
77079;BME280;66004;55.096;38.760;2023-09-19T11:04:42;100497.16;;;22.55;52.84
77079;BME280;66004;55.096;38.760;2023-09-19T11:07:12;100484.06;;;22.40;53.00
77079;BME280;66004;55.096;38.760;2023-09-19T11:09:50;100480.00;;;22.34;52.91
77079;BME280;66004;55.096;38.760;2023-09-19T11:15:01;100477.53;;;22.25;52.81
77079;BME280;66004;55.096;38.760;2023-09-19T11:30:42;100472.56;;;21.97;51.99
77079;BME280;66004;55.096;38.760;2023-09-19T11:33:18;100470.09;;;21.92;52.25
77079;BME280;66004;55.096;38.760;2023-09-19T11:36:14;100468.47;;;21.91;52.22
77079;BME280;66004;55.096;38.760;2023-09-19T11:46:51;100460.31;;;22.36;51.70
77079;BME280;66004;55.096;38.760;2023-09-19T11:49:18;100461.09;;;22.58;51.41
77079;BME280;66004;55.096;38.760;2023-09-19T11:51:51;100462.28;;;22.75;51.61
77079;BME280;66004;55.096;38.760;2023-09-19T11:54:20;100460.97;;;22.98;50.69
77079;BME280;66004;55.096;38.760;2023-09-19T11:56:52;100456.00;;;23.23;50.59
77079;BME280;66004;55.096;38.760;2023-09-19T11:59:27;100442.41;;;23.35;49.49
77079;BME280;66004;55.096;38.760;2023-09-19T12:02:14;100454.16;;;23.58;49.45
77079;BME280;66004;55.096;38.760;2023-09-19T12:04:44;100442.63;;;23.65;49.21
77079;BME280;66004;55.096;38.760;2023-09-19T12:07:15;100458.50;;;23.88;49.13
77079;BME280;66004;55.096;38.760;2023-09-19T12:09:45;100450.22;;;23.97;48.55
77079;BME280;66004;55.096;38.760;2023-09-19T12:12:26;100431.75;;;23.98;48.72
77079;BME280;66004;55.096;38.760;2023-09-19T12:15:01;100436.53;;;24.16;48.71
77079;BME280;66004;55.096;38.760;2023-09-19T12:17:38;100447.03;;;24.33;48.12
77079;BME280;66004;55.096;38.760;2023-09-19T12:20:10;100444.53;;;24.35;48.30
77079;BME280;66004;55.096;38.760;2023-09-19T12:22:41;100445.84;;;24.31;48.00
77079;BME280;66004;55.096;38.760;2023-09-19T12:25:14;100431.59;;;24.13;48.28
77079;BME280;66004;55.096;38.760;2023-09-19T12:27:46;100431.75;;;23.98;48.06
77079;BME280;66004;55.096;38.760;2023-09-19T12:30:27;100425.25;;;23.90;47.81
77079;BME280;66004;55.096;38.760;2023-09-19T12:32:53;100419.53;;;23.87;48.39
77079;BME280;66004;55.096;38.760;2023-09-19T12:35:29;100428.47;;;24.00;48.62
77079;BME280;66004;55.096;38.760;2023-09-19T12:37:56;100420.25;;;23.98;48.78
77079;BME280;66004;55.096;38.760;2023-09-19T12:40:22;100428.00;;;24.01;48.66
77079;BME280;66004;55.096;38.760;2023-09-19T12:42:53;100417.00;;;23.96;48.76
77079;BME280;66004;55.096;38.760;2023-09-19T12:45:20;100410.50;;;23.85;48.54
77079;BME280;66004;55.096;38.760;2023-09-19T12:48:21;100414.69;;;23.69;49.26
77079;BME280;66004;55.096;38.760;2023-09-19T12:53:36;100388.69;;;23.31;49.50
77079;BME280;66004;55.096;38.760;2023-09-19T12:56:07;100394.38;;;23.39;49.66
77079;BME280;66004;55.096;38.760;2023-09-19T12:58:51;100390.34;;;23.32;50.12
77079;BME280;66004;55.096;38.760;2023-09-19T13:01:19;100390.31;;;23.36;50.37
77079;BME280;66004;55.096;38.760;2023-09-19T13:03:45;100389.47;;;23.36;50.00
77079;BME280;66004;55.096;38.760;2023-09-19T13:06:11;100386.97;;;23.45;49.97
77079;BME280;66004;55.096;38.760;2023-09-19T13:08:39;100383.22;;;23.51;50.22
77079;BME280;66004;55.096;38.760;2023-09-19T13:11:16;100386.84;;;23.63;49.70
77079;BME280;66004;55.096;38.760;2023-09-19T13:14:13;100386.81;;;23.66;49.77
77079;BME280;66004;55.096;38.760;2023-09-19T13:16:56;100378.16;;;23.74;49.69
77079;BME280;66004;55.096;38.760;2023-09-19T13:22:10;100378.28;;;24.08;49.71
77079;BME280;66004;55.096;38.760;2023-09-19T13:24:50;100382.41;;;24.03;48.95
77079;BME280;66004;55.096;38.760;2023-09-19T13:27:17;100375.91;;;23.96;49.07
77079;BME280;66004;55.096;38.760;2023-09-19T13:29:42;100368.66;;;23.84;49.34
77079;BME280;66004;55.096;38.760;2023-09-19T13:32:08;100362.13;;;23.80;49.51
77079;BME280;66004;55.096;38.760;2023-09-19T13:34:36;100365.41;;;23.75;49.34
77079;BME280;66004;55.096;38.760;2023-09-19T13:37:03;100366.28;;;23.68;49.45
77079;BME280;66004;55.096;38.760;2023-09-19T13:39:30;100360.97;;;23.66;50.16
77079;BME280;66004;55.096;38.760;2023-09-19T13:41:55;100362.19;;;23.65;49.94
77079;BME280;66004;55.096;38.760;2023-09-19T13:44:21;100355.66;;;23.61;49.58
77079;BME280;66004;55.096;38.760;2023-09-19T13:46:46;100356.06;;;23.63;49.85